Terminal Aerodrome Forecast
Issued by NWS Shreveport, LA

Home | Current Version | Previous Version | Text Only | Print | Product List | Glossary On
Versions: 1 2 3 4 5 6 7 8 9 10 11 12
840
FTUS44 KSHV 222340
TAFSHV
TAF
KSHV 222340Z 2300/2324 36009KT P6SM FEW250
     FM230800 VRB03KT P6SM BKN250
     FM231400 VRB04KT P6SM SCT180
     FM231700 36005KT P6SM FEW180=

USA.gov is the U.S. government's official web portal to all federal, state and local government web resources and services.